createdAt,value
2022-08-11T00:01:16.267Z,18.10
2022-08-11T00:03:47.635Z,18.00
2022-08-11T00:06:24.332Z,17.90
2022-08-11T00:08:53.376Z,18.00
2022-08-11T00:11:24.073Z,17.80
2022-08-11T00:13:55.588Z,18.80
2022-08-11T00:16:26.204Z,17.70
2022-08-11T00:18:56.926Z,17.70
2022-08-11T00:21:32.475Z,17.70
2022-08-11T00:24:16.991Z,17.70
2022-08-11T00:26:50.047Z,19.70
2022-08-11T00:29:18.549Z,17.70
2022-08-11T00:31:51.877Z,17.70
2022-08-11T00:34:23.397Z,17.60
2022-08-11T00:36:54.474Z,17.60
2022-08-11T00:39:29.146Z,17.60
2022-08-11T00:42:09.286Z,17.50
2022-08-11T00:44:49.131Z,17.60
2022-08-11T00:47:28.680Z,17.60
2022-08-11T00:50:19.540Z,17.50
2022-08-11T00:53:32.326Z,17.50
2022-08-11T00:56:39.511Z,17.50
2022-08-11T00:59:40.070Z,17.20
2022-08-11T01:02:18.351Z,17.30
2022-08-11T01:05:15.173Z,17.30
2022-08-11T01:08:34.034Z,17.20
2022-08-11T01:11:55.285Z,17.20
2022-08-11T01:14:41.743Z,17.20
2022-08-11T01:17:50.503Z,18.10
2022-08-11T01:20:49.935Z,17.10
2022-08-11T01:24:09.142Z,17.10
2022-08-11T01:27:19.669Z,17.20
2022-08-11T01:30:40.650Z,17.00
2022-08-11T01:33:47.335Z,16.90
2022-08-11T01:36:57.231Z,16.90
2022-08-11T01:40:23.242Z,17.10
2022-08-11T01:43:29.690Z,16.90
2022-08-11T01:46:00.589Z,16.80
2022-08-11T01:48:41.993Z,16.70
2022-08-11T01:51:19.271Z,16.70
2022-08-11T01:53:59.041Z,16.80
2022-08-11T01:56:39.296Z,16.70
2022-08-11T01:59:15.644Z,16.60
2022-08-11T02:01:59.066Z,16.60
2022-08-11T02:04:34.600Z,16.80
2022-08-11T02:07:14.613Z,16.60
2022-08-11T02:09:56.978Z,16.60
2022-08-11T02:12:52.776Z,19.40
2022-08-11T02:15:29.104Z,16.70
2022-08-11T02:18:06.538Z,16.70
2022-08-11T02:21:00.347Z,16.50
2022-08-11T02:24:06.070Z,16.50
2022-08-11T02:26:39.491Z,16.50
2022-08-11T02:29:18.847Z,16.50
2022-08-11T02:32:29.998Z,16.40
2022-08-11T02:35:11.126Z,16.40
2022-08-11T02:37:59.356Z,16.50
2022-08-11T02:40:36.989Z,16.40
2022-08-11T02:43:18.920Z,16.40
2022-08-11T02:45:55.498Z,16.40
2022-08-11T02:49:09.998Z,16.30
2022-08-11T02:51:47.532Z,16.40
2022-08-11T02:54:26.310Z,16.80
2022-08-11T02:56:59.778Z,16.30
2022-08-11T02:59:53.746Z,16.30
2022-08-11T03:02:51.543Z,16.20
2022-08-11T03:05:27.484Z,16.20
2022-08-11T03:08:22.551Z,17.40
2022-08-11T03:11:19.178Z,16.20
2022-08-11T03:14:15.826Z,16.20
2022-08-11T03:16:49.663Z,16.10
2022-08-11T03:19:25.652Z,15.90
2022-08-11T03:22:06.420Z,15.90
2022-08-11T03:24:46.439Z,15.90
2022-08-11T03:27:29.911Z,16.00
2022-08-11T03:30:07.938Z,16.30
2022-08-11T03:33:07.104Z,16.10
2022-08-11T03:35:39.224Z,17.40
2022-08-11T03:38:12.177Z,16.10
2022-08-11T03:41:49.318Z,18.40
2022-08-11T03:44:14.195Z,16.10
2022-08-11T03:47:00.365Z,16.10
2022-08-11T03:49:39.270Z,16.00
2022-08-11T03:52:17.651Z,16.00
2022-08-11T03:55:01.787Z,15.90
2022-08-11T03:58:01.588Z,15.90
2022-08-11T04:01:35.962Z,16.00
2022-08-11T04:04:37.786Z,15.90
2022-08-11T04:07:58.418Z,15.90
2022-08-11T04:11:02.151Z,15.80
2022-08-11T04:14:19.066Z,15.70
2022-08-11T04:16:53.593Z,15.60
2022-08-11T04:19:55.484Z,15.70
2022-08-11T04:22:55.361Z,15.70
2022-08-11T04:25:58.475Z,15.70
2022-08-11T04:28:54.475Z,15.70
2022-08-11T04:31:51.544Z,15.70
2022-08-11T04:34:38.143Z,15.60
2022-08-11T04:37:34.488Z,15.70
2022-08-11T04:40:32.652Z,15.60
2022-08-11T04:43:37.180Z,17.20
2022-08-11T04:46:45.925Z,12.50
2022-08-11T04:49:52.731Z,15.60
2022-08-11T04:53:19.824Z,15.80
2022-08-11T04:56:22.184Z,15.70
2022-08-11T04:59:32.230Z,15.70
2022-08-11T05:02:41.309Z,15.80
2022-08-11T05:05:33.366Z,15.80
2022-08-11T05:08:29.663Z,15.90
2022-08-11T05:11:18.254Z,16.00
2022-08-11T05:14:07.002Z,16.00
2022-08-11T05:17:01.271Z,16.00
2022-08-11T05:19:47.282Z,16.10
2022-08-11T05:22:36.516Z,16.20
2022-08-11T05:26:44.111Z,16.30
2022-08-11T05:28:35.281Z,16.40
2022-08-11T05:31:28.609Z,16.50
2022-08-11T05:34:18.082Z,16.50
2022-08-11T05:36:51.550Z,16.60
2022-08-11T05:39:41.580Z,16.60
2022-08-11T05:42:30.362Z,16.70
2022-08-11T05:45:23.056Z,16.70
2022-08-11T05:48:10.555Z,16.80
2022-08-11T05:50:57.812Z,16.80
2022-08-11T05:53:46.389Z,17.20
2022-08-11T05:56:18.354Z,16.90
2022-08-11T05:58:50.305Z,16.90
2022-08-11T06:01:25.595Z,17.00
2022-08-11T06:04:12.443Z,17.00
2022-08-11T06:06:45.358Z,17.10
2022-08-11T06:09:15.586Z,17.20
2022-08-11T06:11:45.214Z,17.20
2022-08-11T06:14:15.421Z,17.30
2022-08-11T06:16:49.713Z,17.30
2022-08-11T06:19:21.311Z,17.30
2022-08-11T06:21:52.125Z,17.30
2022-08-11T06:24:20.746Z,17.30
2022-08-11T06:29:47.997Z,17.40
2022-08-11T06:32:27.068Z,17.50
2022-08-11T06:35:06.085Z,17.50
2022-08-11T06:37:44.753Z,17.50
2022-08-11T06:40:21.900Z,17.60
2022-08-11T06:42:55.841Z,17.70
2022-08-11T06:45:33.704Z,20.90
2022-08-11T06:48:06.444Z,17.80
2022-08-11T06:50:54.008Z,17.80
2022-08-11T06:53:22.798Z,17.90
2022-08-11T06:56:09.178Z,18.00
2022-08-11T06:58:56.634Z,18.00
2022-08-11T07:01:48.611Z,18.10
2022-08-11T07:04:29.120Z,18.20
2022-08-11T07:07:39.962Z,18.20
2022-08-11T07:10:47.540Z,18.30
2022-08-11T07:13:44.809Z,18.40
2022-08-11T07:16:18.708Z,18.50
2022-08-11T07:19:13.407Z,18.60
2022-08-11T07:22:06.801Z,19.50
2022-08-11T07:25:01.971Z,18.70
2022-08-11T07:28:10.172Z,18.70
2022-08-11T07:30:41.406Z,18.90
2022-08-11T07:33:11.651Z,18.90
2022-08-11T07:36:05.025Z,19.00
2022-08-11T07:38:47.435Z,19.00
2022-08-11T07:41:19.098Z,20.20
2022-08-11T07:43:49.666Z,19.20
2022-08-11T07:46:37.067Z,19.30
2022-08-11T07:49:24.566Z,19.40
2022-08-11T07:52:12.229Z,19.50
2022-08-11T07:54:45.394Z,23.60
2022-08-11T07:58:13.789Z,22.50
2022-08-11T08:00:42.797Z,19.60
2022-08-11T08:03:33.777Z,19.70
2022-08-11T08:06:35.863Z,19.80
2022-08-11T08:09:23.626Z,19.80
2022-08-11T08:12:13.955Z,19.80
2022-08-11T08:15:01.241Z,19.90
2022-08-11T08:18:09.376Z,20.00
2022-08-11T08:20:39.347Z,20.10
2022-08-11T08:23:09.170Z,20.20
2022-08-11T08:25:41.402Z,20.20
2022-08-11T08:28:14.402Z,20.40
2022-08-11T08:30:50.520Z,20.50
2022-08-11T08:33:23.388Z,20.50
2022-08-11T08:36:13.894Z,20.60
2022-08-11T08:38:47.428Z,20.60
2022-08-11T08:41:19.270Z,20.70
2022-08-11T08:44:15.123Z,20.80
2022-08-11T08:46:52.365Z,20.90
2022-08-11T08:49:26.924Z,20.90
2022-08-11T08:52:32.061Z,22.10
2022-08-11T08:54:54.191Z,21.00
2022-08-11T08:57:24.582Z,21.10
2022-08-11T08:59:56.097Z,21.20
2022-08-11T09:02:34.017Z,21.30
2022-08-11T09:05:14.371Z,21.40
2022-08-11T09:07:44.380Z,21.50
2022-08-11T09:10:17.668Z,21.60
2022-08-11T09:12:48.294Z,21.70
2022-08-11T09:15:46.322Z,21.70
2022-08-11T09:18:19.408Z,23.90
2022-08-11T09:20:49.776Z,22.10
2022-08-11T09:24:08.756Z,22.00
2022-08-11T09:26:42.614Z,22.00
2022-08-11T09:29:12.466Z,22.00
2022-08-11T09:31:41.797Z,22.20
2022-08-11T09:34:13.052Z,22.70
2022-08-11T09:36:58.498Z,22.30
2022-08-11T09:39:45.177Z,22.40
2022-08-11T09:42:16.313Z,22.60
2022-08-11T09:44:53.095Z,22.70
2022-08-11T09:47:25.059Z,22.90
2022-08-11T09:50:06.804Z,24.60
2022-08-11T09:53:34.632Z,22.90
2022-08-11T09:55:50.960Z,22.90
2022-08-11T09:58:42.407Z,23.40
2022-08-11T10:04:00.680Z,23.20
2022-08-11T10:06:54.046Z,23.20
2022-08-11T10:09:25.085Z,23.40
2022-08-11T10:11:59.026Z,25.70
2022-08-11T10:14:49.026Z,23.40
2022-08-11T10:20:12.061Z,19.50
2022-08-11T10:23:03.369Z,23.70
2022-08-11T10:31:57.772Z,23.20
2022-08-11T10:37:05.789Z,24.10
2022-08-11T10:39:41.766Z,24.10
2022-08-11T10:42:55.214Z,24.30
2022-08-11T10:48:10.952Z,24.30
2022-08-11T10:51:04.803Z,24.30
2022-08-11T10:57:04.891Z,24.50
2022-08-11T10:59:43.433Z,24.90
2022-08-11T11:02:28.608Z,23.80
2022-08-11T11:05:20.773Z,24.90
2022-08-11T11:13:57.349Z,25.30
2022-08-11T11:16:45.262Z,25.50
2022-08-11T11:19:16.083Z,25.40
2022-08-11T11:21:51.340Z,25.50
2022-08-11T11:24:42.491Z,25.50
2022-08-11T11:27:23.131Z,25.40
2022-08-11T11:30:24.946Z,25.60
2022-08-11T11:33:10.880Z,25.90
2022-08-11T11:41:24.589Z,27.20
2022-08-11T11:46:50.606Z,26.60
2022-08-11T12:01:12.342Z,26.70
2022-08-11T12:03:50.618Z,26.50
2022-08-11T12:06:21.809Z,26.90
2022-08-11T12:08:55.364Z,27.00
2022-08-11T12:11:46.580Z,27.20
2022-08-11T12:14:28.992Z,27.60
2022-08-11T12:17:13.049Z,27.60
2022-08-11T12:19:54.043Z,27.50
2022-08-11T12:36:17.329Z,27.90
2022-08-11T12:38:53.597Z,28.10
2022-08-11T12:41:42.807Z,28.50
2022-08-11T12:44:36.604Z,28.40
2022-08-11T12:47:06.287Z,28.20
2022-08-11T12:49:56.986Z,28.10
2022-08-11T12:52:31.220Z,28.30
2022-08-11T12:55:03.647Z,28.20
2022-08-11T12:57:54.471Z,28.60
2022-08-11T13:00:43.194Z,28.70
2022-08-11T13:03:31.172Z,28.60
2022-08-11T13:06:03.000Z,28.60
2022-08-11T13:08:37.410Z,28.70
2022-08-11T13:16:58.613Z,28.70
2022-08-11T13:22:05.293Z,28.40
2022-08-11T13:24:55.563Z,28.30
2022-08-11T13:30:16.940Z,28.40
2022-08-11T13:32:47.855Z,28.40
2022-08-11T13:35:17.972Z,28.60
2022-08-11T13:38:18.476Z,28.50
2022-08-11T13:40:54.769Z,28.70
2022-08-11T13:43:25.208Z,28.80
2022-08-11T13:46:15.545Z,28.80
2022-08-11T13:51:35.718Z,29.00
2022-08-11T13:54:06.291Z,28.60
2022-08-11T13:56:43.451Z,29.10
2022-08-11T13:59:17.883Z,29.40
2022-08-11T14:02:20.368Z,29.60
2022-08-11T14:04:45.185Z,29.60
2022-08-11T14:07:15.856Z,29.60
2022-08-11T14:09:48.025Z,29.80
2022-08-11T14:12:46.135Z,29.70
2022-08-11T14:15:26.383Z,29.70
2022-08-11T14:18:03.437Z,30.00
2022-08-11T14:20:54.265Z,30.00
2022-08-11T14:23:28.935Z,30.30
2022-08-11T14:28:47.004Z,30.50
2022-08-11T14:31:17.217Z,30.30
2022-08-11T14:33:59.425Z,30.20
2022-08-11T14:36:35.551Z,29.90
2022-08-11T14:39:07.230Z,30.20
2022-08-11T14:42:10.177Z,30.20
2022-08-11T14:45:04.006Z,30.40
2022-08-11T14:47:35.405Z,31.00
2022-08-11T14:50:10.124Z,31.10
2022-08-11T14:52:50.076Z,31.20
2022-08-11T14:55:37.778Z,31.20
2022-08-11T14:58:07.751Z,31.10
2022-08-11T15:00:38.083Z,30.70
2022-08-11T15:03:12.733Z,30.80
2022-08-11T15:05:56.981Z,30.60
2022-08-11T15:08:47.633Z,30.50
2022-08-11T15:11:35.437Z,30.60
2022-08-11T15:14:06.948Z,30.30
2022-08-11T15:16:55.240Z,30.40
2022-08-11T15:19:25.880Z,30.30
2022-08-11T15:22:11.838Z,31.50
2022-08-11T15:24:39.949Z,30.30
2022-08-11T15:27:31.073Z,30.10
2022-08-11T15:30:33.508Z,30.00
2022-08-11T15:33:25.428Z,29.80
2022-08-11T15:36:14.307Z,30.10
2022-08-11T15:38:48.499Z,29.90
2022-08-11T15:41:36.587Z,29.50
2022-08-11T15:44:44.541Z,29.30
2022-08-11T15:47:15.436Z,29.40
2022-08-11T15:50:11.884Z,29.30
2022-08-11T15:52:44.167Z,30.50
2022-08-11T15:55:12.759Z,29.00
2022-08-11T15:57:59.789Z,29.40
2022-08-11T16:00:46.638Z,28.80
2022-08-11T16:03:50.493Z,30.30
2022-08-11T16:06:24.020Z,29.00
2022-08-11T16:08:56.369Z,29.40
2022-08-11T16:11:25.878Z,29.70
2022-08-11T16:14:12.880Z,30.00
2022-08-11T16:16:42.093Z,30.10
2022-08-11T16:19:11.542Z,30.60
2022-08-11T16:21:43.196Z,30.70
2022-08-11T16:26:30.600Z,30.70
2022-08-11T16:27:13.137Z,30.70
2022-08-11T16:29:45.372Z,32.10
2022-08-11T16:32:23.150Z,30.90
2022-08-11T16:35:15.556Z,30.80
2022-08-11T16:38:04.013Z,30.90
2022-08-11T16:40:33.518Z,30.90
2022-08-11T16:43:23.135Z,30.80
2022-08-11T16:46:09.926Z,31.00
2022-08-11T16:48:41.262Z,31.40
2022-08-11T16:51:12.958Z,31.10
2022-08-11T16:54:04.473Z,31.10
2022-08-11T16:56:37.236Z,30.50
2022-08-11T16:59:15.629Z,30.10
2022-08-11T17:01:48.374Z,29.70
2022-08-11T17:04:43.231Z,29.90
2022-08-11T17:07:40.356Z,29.80
2022-08-11T17:10:50.991Z,30.20
2022-08-11T17:13:27.269Z,28.60
2022-08-11T17:16:12.216Z,30.00
2022-08-11T17:18:46.798Z,30.00
2022-08-11T17:21:18.616Z,29.80
2022-08-11T17:23:50.085Z,29.40
2022-08-11T17:26:23.259Z,29.20
2022-08-11T17:28:56.312Z,29.20
2022-08-11T17:31:45.476Z,28.70
2022-08-11T17:34:32.634Z,28.70
2022-08-11T17:37:01.144Z,28.40
2022-08-11T17:39:32.719Z,28.00
2022-08-11T17:42:21.001Z,28.10
2022-08-11T17:45:07.867Z,27.10
2022-08-11T17:47:54.333Z,25.80
2022-08-11T17:50:23.212Z,26.90
2022-08-11T17:53:10.207Z,26.60
2022-08-11T17:55:59.419Z,26.30
2022-08-11T17:58:47.080Z,26.00
2022-08-11T18:01:17.376Z,28.10
2022-08-11T18:03:53.034Z,25.70
2022-08-11T18:06:34.460Z,25.30
2022-08-11T18:09:24.919Z,25.00
2022-08-11T18:12:15.031Z,24.90
2022-08-11T18:15:06.684Z,24.70
2022-08-11T18:17:54.983Z,24.60
2022-08-11T18:20:42.715Z,24.60
2022-08-11T18:23:45.766Z,24.50
2022-08-11T18:26:38.393Z,24.50
2022-08-11T18:29:26.124Z,24.30
2022-08-11T18:32:20.943Z,24.30
2022-08-11T18:35:11.301Z,24.10
2022-08-11T18:38:07.803Z,23.90
2022-08-11T18:40:55.906Z,23.90
2022-08-11T18:44:17.393Z,23.80
2022-08-11T18:53:03.134Z,23.50
2022-08-11T18:55:50.410Z,23.50
2022-08-11T18:58:44.348Z,23.40
2022-08-11T19:01:32.910Z,24.60
2022-08-11T19:04:20.349Z,23.10
2022-08-11T19:07:11.688Z,23.00
2022-08-11T19:09:59.918Z,22.90
2022-08-11T19:12:50.785Z,23.60
2022-08-11T19:15:38.726Z,22.70
2022-08-11T19:18:26.049Z,22.70
2022-08-11T19:21:13.562Z,22.70
2022-08-11T19:24:03.552Z,22.50
2022-08-11T19:26:51.073Z,22.40
2022-08-11T19:30:07.093Z,22.30
2022-08-11T19:32:47.818Z,22.20
2022-08-11T19:35:34.576Z,22.30
2022-08-11T19:38:21.852Z,22.30
2022-08-11T19:41:09.795Z,22.30
2022-08-11T19:43:58.096Z,22.30
2022-08-11T19:46:44.454Z,22.30
2022-08-11T19:49:31.668Z,22.20
2022-08-11T19:52:18.276Z,22.10
2022-08-11T19:55:04.592Z,22.10
2022-08-11T19:57:53.667Z,22.00
2022-08-11T20:00:40.046Z,22.00
2022-08-11T20:03:27.369Z,22.00
2022-08-11T20:06:15.967Z,21.90
2022-08-11T20:09:04.156Z,21.80
2022-08-11T20:11:55.473Z,21.80
2022-08-11T20:14:45.183Z,21.60
2022-08-11T20:17:34.041Z,21.60
2022-08-11T20:20:22.926Z,21.50
2022-08-11T20:23:11.546Z,22.00
2022-08-11T20:26:08.447Z,21.40
2022-08-11T20:29:03.248Z,21.30
2022-08-11T20:35:40.528Z,21.10
2022-08-11T20:38:28.724Z,21.10
2022-08-11T20:47:18.227Z,21.00
2022-08-11T20:50:05.816Z,20.80
2022-08-11T20:53:09.681Z,20.70
2022-08-11T20:55:59.269Z,20.60
2022-08-11T21:02:03.130Z,20.40
2022-08-11T21:22:27.839Z,20.00
2022-08-11T21:28:31.091Z,20.10
2022-08-11T21:43:31.539Z,20.00
2022-08-11T21:46:19.865Z,20.00
2022-08-11T21:57:49.983Z,19.70
2022-08-11T22:00:43.787Z,19.60
2022-08-11T22:18:13.322Z,19.40
2022-08-11T22:20:59.818Z,19.40
2022-08-11T22:23:48.632Z,19.40
2022-08-11T22:26:37.478Z,19.30
2022-08-11T22:32:33.998Z,19.10
2022-08-11T22:35:24.076Z,19.10
2022-08-11T22:38:16.233Z,19.10
2022-08-11T22:41:02.561Z,19.00
2022-08-11T22:46:40.172Z,18.90
2022-08-11T22:49:27.796Z,18.80
2022-08-11T22:52:17.986Z,18.80
2022-08-11T22:55:05.508Z,18.80
2022-08-11T22:58:00.931Z,18.80
2022-08-11T23:00:47.933Z,18.80
2022-08-11T23:03:37.451Z,18.80
2022-08-11T23:09:25.135Z,18.80
2022-08-11T23:12:11.810Z,18.70
2022-08-11T23:15:11.178Z,18.60
2022-08-11T23:20:58.242Z,18.60
2022-08-11T23:23:47.816Z,18.50
2022-08-11T23:26:38.693Z,18.40
2022-08-11T23:29:27.242Z,18.40
2022-08-11T23:35:38.758Z,18.40
2022-08-11T23:46:39.209Z,18.30
2022-08-11T23:49:26.661Z,18.20
